Irvington, New Jersey
Current Conditions -  °F | °C
As of 1:51 AM on Wednesday 22 Oct 2014 (Local Time) from KEWR Reporting Station
Broken Clouds Broken Clouds  
Wind Chill: 55°   Ceiling: 12000
Heat Index: 55°   Visibility: 10mi
Dew Point: 53°   Wind: 12mph
Humidity: 93%   Direction: 10°N
Pressure: 29.89"   Gusts: NA
Location:  40.73°N, 74.23°W
Report Text: KEWR 220551Z 01010KT 10SM FEW018 SCT030 BKN120 BKN210 13/12 A2989 RMK AO2 SLP121 60000 T01280117 10150 20128 58005
Loading
Personal Weather Stations






























Interactive Weather Map
Tropical Storm Tracking
New forecast layout! Learn more

10-Day Weather Forecast

Advertisements
Track Severe Weather on mobile